Terminal Aerodrome Forecast
Issued by NWS

Home | Current Version | Previous Version | Text Only | Print | Product List | Glossary On
Versions: 1 2 3 4 5 6 7 8 9 10 11 12 13 14 15 16
969
FTUS44 KLIX 191720
TAFMCB
TAF
KMCB 191720Z 1918/2018 32004KT P6SM VCTS FEW025CB SCT035
     FM191900 32004KT P6SM VCTS SCT030CB BKN035
     FM200100 VRB03KT P6SM FEW025 SCT040 PROB30 2014/2018 4SM -TSRA
      BKN025CB=

USA.gov is the U.S. government's official web portal to all federal, state and local government web resources and services.